Clam Gulch, AK (99568)

5:52 PM AKST on December 21, 2014 (GMT -0900)
AKDOT Sterling Highway @ Ninilchik River Brid | Change Station
CLOSE
Current Station
Personal Weather Station
Location: Ninilchik, AK
Elevation: 98 ft
Nearby Weather Stations

Elev 98 ft 60.05 °N, 151.66 °W | Updated 29 minutes ago

Overcast
Overcast
23 °F
Feels Like 23 °F
N
2
Wind Variable Wind from East
Gusts 4.0 mph

Today
High -- | Low -- °F
--% Chance of Precip.
Yesterday
High -- | Low -- °F
Precip. -- in
10:09 AM 3:58 PM
New Moon, 0% visible
Pressure 29.39 in
Visibility 6.0 miles
Clouds Mostly Cloudy 400 ft
Overcast 1000 ft
Windchill 23 °F
Dew Point 21 °F
Humidity 92%
Rainfall -999.00 in
Snow Depth Not available.
UV 0 out of 12
Pollen Not available.
Air Quality Not available.
Flu Activity Not available.
METAR PASX 220236Z AUTO 10003KT 6SM BKN004 OVC010 M07/M08 A2939 RMK AO1

More Conditions Fewer Conditions

Pressure 29.39 in
Visibility 6.0 miles
Clouds Mostly Cloudy 400 ft
Overcast 1000 ft
Windchill 23 °F
Dew Point 21 °F
Humidity 92%
Rainfall -999.00 in
Snow Depth Not available.
UV 0 out of 12
Pollen Not available.
Air Quality Not available.
Flu Activity Not available.
METAR PASX 220236Z AUTO 10003KT 6SM BKN004 OVC010 M07/M08 A2939 RMK AO1

More Conditions Fewer Conditions

10-Day Weather Forecast

Almanac

Astronomy

Dec. 21, 2014 Rise Set
Actual Time
Civil Twilight
Nautical Twilight
Astronomical Twilight
Moon
Length of Visible Light
Length of Day
Tomorrow will be .
, % of the Moon is Illuminated

Today's Extremes

State Highs State Lows

Community

WunderPhotos

Upload Photos

1,779,528 photos uploaded!

WunderBlogs® & News

Nearby

Air Quality

  Air Quality AQ Index Pollutant
Not available.

Snow Depth

Station Depth Elevation

Earthquake Activity

City Distance Mag. Time & Date
Minimum magnitude displayed is 2.5.

Coastal Water Temperatures

Place Temperature

Nearby Weather Stations